createdAt,value
2022-11-29T00:01:36.123Z,101073.22
2022-11-29T00:04:04.540Z,101078.50
2022-11-29T00:06:34.698Z,101079.28
2022-11-29T00:09:07.594Z,101066.75
2022-11-29T00:11:56.491Z,101077.50
2022-11-29T00:14:25.261Z,101075.81
2022-11-29T00:16:56.194Z,101075.03
2022-11-29T00:19:23.448Z,101087.81
2022-11-29T00:21:50.764Z,101077.38
2022-11-29T00:24:17.655Z,101074.13
2022-11-29T00:26:44.584Z,101073.53
2022-11-29T00:29:13.066Z,101072.88
2022-11-29T00:31:41.182Z,101079.19
2022-11-29T00:34:10.508Z,101077.28
2022-11-29T00:36:38.511Z,101079.75
2022-11-29T00:39:06.084Z,101081.34
2022-11-29T00:41:33.558Z,101085.78
2022-11-29T00:44:00.779Z,101092.06
2022-11-29T00:46:27.637Z,101085.91
2022-11-29T00:48:54.341Z,101081.66
2022-11-29T00:51:21.116Z,101085.28
2022-11-29T00:53:47.905Z,101085.28
2022-11-29T00:56:14.666Z,101093.97
2022-11-29T00:58:43.520Z,101097.28
2022-11-29T01:01:11.645Z,101092.56
2022-11-29T01:03:38.664Z,101089.00
2022-11-29T01:06:10.267Z,101097.16
2022-11-29T01:08:37.862Z,101093.66
2022-11-29T01:11:14.827Z,101091.13
2022-11-29T01:13:43.396Z,101088.59
2022-11-29T01:16:10.826Z,101088.59
2022-11-29T01:18:38.454Z,101087.75
2022-11-29T01:21:13.627Z,101092.22
2022-11-29T01:23:41.121Z,101092.22
2022-11-29T01:26:13.841Z,101095.88
2022-11-29T01:28:42.122Z,101091.44
2022-11-29T01:31:29.612Z,101092.38
2022-11-29T01:34:00.289Z,101093.41
2022-11-29T01:36:27.774Z,101094.44
2022-11-29T01:38:54.701Z,101100.13
2022-11-29T01:41:27.010Z,101102.16
2022-11-29T01:44:00.515Z,101111.19
2022-11-29T01:46:43.688Z,101116.69
2022-11-29T01:49:15.080Z,101107.06
2022-11-29T01:51:50.329Z,101111.75
2022-11-29T01:54:18.918Z,101111.75
2022-11-29T01:56:50.266Z,101111.59
2022-11-29T01:59:22.116Z,101113.34
2022-11-29T02:01:49.129Z,101112.63
2022-11-29T02:04:18.470Z,101111.03
2022-11-29T02:06:46.847Z,101105.94
2022-11-29T02:09:20.990Z,101112.47
2022-11-29T02:12:09.462Z,101115.41
2022-11-29T02:15:07.210Z,101119.88
2022-11-29T02:18:33.754Z,101122.47
2022-11-29T02:21:19.802Z,101119.72
2022-11-29T02:24:30.839Z,101125.09
2022-11-29T02:27:37.579Z,101121.63
2022-11-29T02:30:47.693Z,101129.75
2022-11-29T02:33:32.903Z,101124.38
2022-11-29T02:36:34.333Z,101117.19
2022-11-29T02:39:39.277Z,101118.94
2022-11-29T02:42:24.708Z,101123.34
2022-11-29T02:45:04.860Z,101124.16
2022-11-29T02:48:17.686Z,101127.56
2022-11-29T02:51:06.373Z,101130.16
2022-11-29T02:53:51.215Z,101135.53
2022-11-29T02:56:27.442Z,101135.38
2022-11-29T02:59:34.677Z,101138.88
2022-11-29T03:02:10.249Z,101138.88
2022-11-29T03:04:49.921Z,101141.56
2022-11-29T03:07:44.462Z,101153.25
2022-11-29T03:10:30.531Z,101160.47
2022-11-29T03:12:59.796Z,101157.78
2022-11-29T03:15:34.523Z,101158.44
2022-11-29T03:18:31.999Z,101159.34
2022-11-29T03:21:32.466Z,101167.47
2022-11-29T03:24:09.269Z,101167.59
2022-11-29T03:26:57.724Z,101168.38
2022-11-29T03:29:35.928Z,101174.41
2022-11-29T03:32:15.293Z,101177.88
2022-11-29T03:35:02.728Z,101179.66
2022-11-29T03:37:53.187Z,101176.97
2022-11-29T03:40:31.630Z,101176.84
2022-11-29T03:43:09.448Z,101184.84
2022-11-29T03:45:45.480Z,101184.84
2022-11-29T03:48:23.598Z,101187.38
2022-11-29T03:50:56.596Z,101189.22
2022-11-29T03:53:42.455Z,101195.44
2022-11-29T03:56:34.947Z,101191.84
2022-11-29T03:59:30.052Z,101195.13
2022-11-29T04:02:14.648Z,101196.09
2022-11-29T04:04:47.490Z,101203.13
2022-11-29T04:07:50.646Z,101206.78
2022-11-29T04:11:07.681Z,101204.16
2022-11-29T04:14:00.659Z,101208.00
2022-11-29T04:16:51.770Z,101208.06
2022-11-29T04:19:52.524Z,101213.56
2022-11-29T04:22:40.468Z,101217.22
2022-11-29T04:25:52.775Z,101222.41
2022-11-29T04:29:00.667Z,101219.81
2022-11-29T04:32:18.303Z,101233.31
2022-11-29T04:35:33.306Z,101227.78
2022-11-29T04:38:29.034Z,101225.91
2022-11-29T04:41:36.351Z,101231.13
2022-11-29T04:44:57.221Z,101235.41
2022-11-29T04:47:56.403Z,101234.34
2022-11-29T04:51:01.816Z,101236.06
2022-11-29T04:54:01.644Z,101242.97
2022-11-29T04:56:42.796Z,101246.16
2022-11-29T04:59:25.426Z,101251.28
2022-11-29T05:02:51.210Z,101242.31
2022-11-29T05:05:43.048Z,101251.03
2022-11-29T05:08:43.809Z,101246.44
2022-11-29T05:11:48.095Z,101259.88
2022-11-29T05:14:49.073Z,101256.22
2022-11-29T05:17:33.023Z,101257.97
2022-11-29T05:20:34.198Z,101263.22
2022-11-29T05:23:44.250Z,101272.22
2022-11-29T05:26:38.345Z,101272.22
2022-11-29T05:29:19.569Z,101273.00
2022-11-29T05:32:30.017Z,101279.16
2022-11-29T05:35:27.204Z,101277.44
2022-11-29T05:38:35.053Z,101286.34
2022-11-29T05:41:21.989Z,101289.25
2022-11-29T05:44:10.274Z,101287.47
2022-11-29T05:47:00.044Z,101299.06
2022-11-29T05:50:21.655Z,101300.00
2022-11-29T05:53:16.923Z,101307.44
2022-11-29T05:56:18.695Z,101309.31
2022-11-29T05:58:56.936Z,101308.66
2022-11-29T06:01:53.431Z,101312.25
2022-11-29T06:04:57.279Z,101317.63
2022-11-29T06:08:07.084Z,101328.38
2022-11-29T06:10:52.353Z,101323.97
2022-11-29T06:13:36.747Z,101328.38
2022-11-29T06:16:28.540Z,101335.63
2022-11-29T06:19:07.252Z,101326.66
2022-11-29T06:21:59.491Z,101329.19
2022-11-29T06:24:43.485Z,101335.34
2022-11-29T06:27:50.668Z,101339.00
2022-11-29T06:30:26.274Z,101339.66
2022-11-29T06:33:18.001Z,101340.44
2022-11-29T06:36:00.940Z,101349.44
2022-11-29T06:38:30.843Z,101346.75
2022-11-29T06:41:02.078Z,101359.09
2022-11-29T06:43:30.320Z,101350.91
2022-11-29T06:46:26.725Z,101363.47
2022-11-29T06:49:22.103Z,101363.66
2022-11-29T06:52:01.790Z,101376.28
2022-11-29T06:55:03.755Z,101378.31
2022-11-29T06:57:56.364Z,101389.22
2022-11-29T07:00:51.254Z,101389.34
2022-11-29T07:03:48.680Z,101381.50
2022-11-29T07:06:25.938Z,101393.25
2022-11-29T07:09:00.985Z,101389.75
2022-11-29T07:11:28.728Z,101400.63
2022-11-29T07:13:55.941Z,101394.47
2022-11-29T07:16:47.481Z,101400.91
2022-11-29T07:19:31.004Z,101408.28
2022-11-29T07:22:21.688Z,101407.56
2022-11-29T07:25:12.933Z,101419.16
2022-11-29T07:27:57.929Z,101419.31
2022-11-29T07:30:39.591Z,101428.44
2022-11-29T07:33:21.159Z,101426.69
2022-11-29T07:36:17.972Z,101432.06
2022-11-29T07:39:01.432Z,101435.53
2022-11-29T07:42:00.432Z,101432.84
2022-11-29T07:45:06.696Z,101433.81
2022-11-29T07:47:35.982Z,101435.53
2022-11-29T07:50:04.345Z,101435.59
2022-11-29T07:52:31.166Z,101440.09
2022-11-29T07:54:59.139Z,101437.44
2022-11-29T07:57:25.834Z,101438.22
2022-11-29T07:59:52.564Z,101444.41
2022-11-29T08:02:30.906Z,101440.91
2022-11-29T08:04:58.411Z,101449.03
2022-11-29T08:07:25.481Z,101441.03
2022-11-29T08:09:52.229Z,101444.56
2022-11-29T08:12:19.192Z,101448.03
2022-11-29T08:14:46.119Z,101448.03
2022-11-29T08:17:13.055Z,101446.09
2022-11-29T08:19:39.795Z,101451.38
2022-11-29T08:22:06.721Z,101446.97
2022-11-29T08:24:33.476Z,101444.28
2022-11-29T08:27:00.382Z,101452.31
2022-11-29T08:29:27.530Z,101443.19
2022-11-29T08:31:54.791Z,101449.25
2022-11-29T08:34:23.984Z,101458.09
2022-11-29T08:36:51.699Z,101458.09
2022-11-29T08:39:18.448Z,101463.47
2022-11-29T08:41:45.219Z,101467.97
2022-11-29T08:44:12.074Z,101467.06
2022-11-29T08:46:57.188Z,101467.97
2022-11-29T08:49:23.928Z,101474.19
2022-11-29T08:51:53.359Z,101474.06
2022-11-29T08:54:20.142Z,101477.50
2022-11-29T08:57:23.581Z,101482.72
2022-11-29T08:59:33.798Z,101492.25
2022-11-29T09:02:00.981Z,101491.09
2022-11-29T09:04:27.796Z,101492.66
2022-11-29T09:06:54.518Z,101503.06
2022-11-29T09:09:21.927Z,101496.63
2022-11-29T09:11:49.745Z,101495.41
2022-11-29T09:14:17.595Z,101510.44
2022-11-29T09:16:44.365Z,101505.88
2022-11-29T09:19:14.512Z,101511.25
2022-11-29T09:21:41.465Z,101514.88
2022-11-29T09:24:09.321Z,101509.50
2022-11-29T09:26:38.090Z,101512.03
2022-11-29T09:29:06.716Z,101518.22
2022-11-29T09:31:35.083Z,101529.69
2022-11-29T09:34:02.069Z,101526.09
2022-11-29T09:36:30.845Z,101528.84
2022-11-29T09:39:02.543Z,101532.31
2022-11-29T09:41:48.678Z,101536.78
2022-11-29T09:44:45.353Z,101534.88
2022-11-29T09:47:33.478Z,101535.69
2022-11-29T09:50:37.107Z,101544.53
2022-11-29T09:53:27.692Z,101541.06
2022-11-29T09:56:25.711Z,101555.34
2022-11-29T09:59:01.221Z,101550.22
2022-11-29T10:01:34.617Z,101553.88
2022-11-29T10:04:10.116Z,101556.56
2022-11-29T10:06:45.678Z,101558.28
2022-11-29T10:10:07.470Z,101554.63
2022-11-29T10:12:46.105Z,101555.28
2022-11-29T10:15:27.296Z,101557.91
2022-11-29T10:17:59.977Z,101561.47
2022-11-29T10:20:36.505Z,101543.69
2022-11-29T10:23:33.829Z,101552.47
2022-11-29T10:26:01.051Z,101540.63
2022-11-29T10:28:33.516Z,101547.59
2022-11-29T10:31:32.971Z,101545.88
2022-11-29T10:34:10.639Z,101546.00
2022-11-29T10:36:46.724Z,101546.00
2022-11-29T10:39:42.185Z,101545.03
2022-11-29T10:42:40.959Z,101536.72
2022-11-29T10:45:30.520Z,101533.09
2022-11-29T10:48:07.874Z,101534.84
2022-11-29T10:50:37.336Z,101527.56
2022-11-29T10:53:13.694Z,101535.56
2022-11-29T10:55:48.608Z,101537.91
2022-11-29T10:58:23.372Z,101540.59
2022-11-29T11:01:00.148Z,101539.53
2022-11-29T11:03:53.382Z,101538.50
2022-11-29T11:06:28.490Z,101548.09
2022-11-29T11:09:12.464Z,101544.31
2022-11-29T11:11:40.271Z,101549.13
2022-11-29T11:14:25.464Z,101548.53
2022-11-29T11:16:53.944Z,101548.72
2022-11-29T11:19:34.700Z,101543.88
2022-11-29T11:22:04.079Z,101557.72
2022-11-29T11:24:41.842Z,101560.78
2022-11-29T11:27:08.687Z,101559.06
2022-11-29T11:29:42.426Z,101550.78
2022-11-29T11:32:19.620Z,101550.66
2022-11-29T11:35:00.628Z,101555.16
2022-11-29T11:37:30.052Z,101551.63
2022-11-29T11:40:01.391Z,101555.16
2022-11-29T11:42:40.979Z,101564.03
2022-11-29T11:45:27.301Z,101560.00
2022-11-29T11:48:02.999Z,101567.09
2022-11-29T11:50:34.903Z,101574.22
2022-11-29T11:53:18.217Z,101587.75
2022-11-29T11:56:01.030Z,101580.59
2022-11-29T11:58:45.830Z,101579.63
2022-11-29T12:01:12.545Z,101588.66
2022-11-29T12:03:51.119Z,101585.97
2022-11-29T12:06:18.258Z,101595.75
2022-11-29T12:08:48.403Z,101592.09
2022-11-29T12:11:18.877Z,101583.09
2022-11-29T12:13:53.096Z,101593.72
2022-11-29T12:16:30.472Z,101591.69
2022-11-29T12:19:26.962Z,101596.78
2022-11-29T12:22:06.710Z,101607.69
2022-11-29T12:24:54.143Z,101604.31
2022-11-29T12:27:21.271Z,101608.78
2022-11-29T12:29:48.266Z,101608.78
2022-11-29T12:32:41.145Z,101615.69
2022-11-29T12:35:42.077Z,101616.53
2022-11-29T12:38:37.408Z,101617.34
2022-11-29T12:41:31.552Z,101628.72
2022-11-29T12:44:29.545Z,101632.00
2022-11-29T12:47:38.176Z,101633.72
2022-11-29T12:50:37.931Z,101630.13
2022-11-29T12:53:34.741Z,101642.59
2022-11-29T12:56:25.839Z,101638.25
2022-11-29T12:59:32.003Z,101647.19
2022-11-29T13:02:42.623Z,101644.50
2022-11-29T13:05:38.616Z,101633.72
2022-11-29T13:08:38.201Z,101637.09
2022-11-29T13:11:14.457Z,101644.19
2022-11-29T13:13:45.179Z,101641.44
2022-11-29T13:17:17.444Z,101651.41
2022-11-29T13:19:58.053Z,101648.72
2022-11-29T13:22:52.222Z,101650.31
2022-11-29T13:25:28.352Z,101654.69
2022-11-29T13:28:04.815Z,101650.91
2022-11-29T13:30:34.852Z,101654.28
2022-11-29T13:33:24.977Z,101648.75
2022-11-29T13:36:21.358Z,101649.69
2022-11-29T13:39:28.355Z,101656.16
2022-11-29T13:42:21.986Z,101656.00
2022-11-29T13:45:17.532Z,101652.31
2022-11-29T13:47:51.004Z,101647.72
2022-11-29T13:50:46.169Z,101652.09
2022-11-29T13:53:19.129Z,101650.19
2022-11-29T13:56:00.196Z,101652.09
2022-11-29T13:58:38.118Z,101646.56
2022-11-29T14:01:12.407Z,101646.50
2022-11-29T14:03:41.882Z,101650.06
2022-11-29T14:06:31.345Z,101651.81
2022-11-29T14:09:22.400Z,101650.84
2022-11-29T14:12:18.924Z,101654.44
2022-11-29T14:15:05.728Z,101657.03
2022-11-29T14:17:45.344Z,101658.78
2022-11-29T14:20:24.929Z,101649.78
2022-11-29T14:23:07.404Z,101651.66
2022-11-29T14:25:51.615Z,101656.91
2022-11-29T14:28:21.587Z,101660.38
2022-11-29T14:31:02.811Z,101656.75
2022-11-29T14:33:51.790Z,101651.50
2022-11-29T14:36:45.460Z,101664.03
2022-11-29T14:39:29.941Z,101657.03
2022-11-29T14:42:18.707Z,101664.03
2022-11-29T14:44:54.482Z,101664.03
2022-11-29T14:47:48.537Z,101665.94
2022-11-29T14:50:39.044Z,101668.41
2022-11-29T14:53:26.668Z,101667.41
2022-11-29T14:56:31.103Z,101667.66
2022-11-29T14:59:47.636Z,101665.84
2022-11-29T15:02:34.760Z,101665.03
2022-11-29T15:05:29.056Z,101677.75
2022-11-29T15:08:37.763Z,101669.03
2022-11-29T15:11:27.080Z,101673.03
2022-11-29T15:14:37.946Z,101675.19
2022-11-29T15:17:10.731Z,101671.84
2022-11-29T15:20:28.056Z,101679.09
2022-11-29T15:23:01.041Z,101688.06
2022-11-29T15:25:31.886Z,101672.44
2022-11-29T15:28:01.788Z,101684.00
2022-11-29T15:30:39.133Z,101684.06
2022-11-29T15:33:19.360Z,101686.81
2022-11-29T15:35:53.164Z,101692.06
2022-11-29T15:38:22.699Z,101691.16
2022-11-29T15:40:53.071Z,101692.94
2022-11-29T15:43:37.704Z,101695.56
2022-11-29T15:46:04.633Z,101691.81
2022-11-29T15:48:32.867Z,101693.53
2022-11-29T15:51:31.310Z,101698.78
2022-11-29T15:54:13.269Z,101697.19
2022-11-29T15:56:54.800Z,101701.75
2022-11-29T15:59:39.346Z,101701.97
2022-11-29T16:02:29.480Z,101697.75
2022-11-29T16:05:01.947Z,101700.44
2022-11-29T16:07:34.351Z,101695.84
2022-11-29T16:10:19.591Z,101707.41
2022-11-29T16:13:04.796Z,101704.72
2022-11-29T16:15:38.978Z,101715.50
2022-11-29T16:18:18.905Z,101713.81
2022-11-29T16:21:00.070Z,101712.13
2022-11-29T16:23:44.187Z,101715.91
2022-11-29T16:26:28.409Z,101714.97
2022-11-29T16:28:57.965Z,101708.75
2022-11-29T16:31:38.345Z,101707.91
2022-11-29T16:34:26.612Z,101703.53
2022-11-29T16:37:20.445Z,101714.44
2022-11-29T16:39:51.030Z,101712.69
2022-11-29T16:42:32.298Z,101705.56
2022-11-29T16:45:04.525Z,101712.94
2022-11-29T16:47:58.003Z,101718.47
2022-11-29T16:50:34.917Z,101713.34
2022-11-29T16:53:38.415Z,101726.88
2022-11-29T16:56:10.292Z,101723.59
2022-11-29T16:59:17.144Z,101728.16
2022-11-29T17:01:29.068Z,101725.47
2022-11-29T17:03:59.949Z,101724.41
2022-11-29T17:06:29.533Z,101721.72
2022-11-29T17:08:59.358Z,101715.53
2022-11-29T17:11:26.178Z,101724.47
2022-11-29T17:13:53.559Z,101726.28
2022-11-29T17:16:23.845Z,101722.78
2022-11-29T17:18:52.806Z,101721.94
2022-11-29T17:21:22.953Z,101728.16
2022-11-29T17:23:51.250Z,101722.91
2022-11-29T17:26:19.018Z,101727.66
2022-11-29T17:28:48.431Z,101730.41
2022-11-29T17:31:22.239Z,101730.50
2022-11-29T17:33:50.070Z,101727.06
2022-11-29T17:36:20.477Z,101731.63
2022-11-29T17:38:48.573Z,101732.56
2022-11-29T17:41:20.827Z,101727.94
2022-11-29T17:43:48.094Z,101732.34
2022-11-29T17:46:19.121Z,101744.13
2022-11-29T17:48:46.312Z,101748.59
2022-11-29T17:51:43.608Z,101750.31
2022-11-29T17:54:04.375Z,101747.56
2022-11-29T17:56:31.260Z,101749.44
2022-11-29T17:59:02.301Z,101748.59
2022-11-29T18:01:33.141Z,101753.94
2022-11-29T18:04:03.825Z,101755.81
2022-11-29T18:06:39.639Z,101757.63
2022-11-29T18:09:09.235Z,101757.69
2022-11-29T18:11:47.984Z,101759.56
2022-11-29T18:14:28.041Z,101761.44
2022-11-29T18:16:55.006Z,101768.72
2022-11-29T18:19:23.079Z,101769.56
2022-11-29T18:21:51.092Z,101771.94
2022-11-29T18:24:18.484Z,101769.06
2022-11-29T18:26:45.883Z,101769.00
2022-11-29T18:29:12.644Z,101767.31
2022-11-29T18:31:43.883Z,101773.81
2022-11-29T18:34:13.547Z,101772.19
2022-11-29T18:36:45.012Z,101775.09
2022-11-29T18:39:19.499Z,101772.47
2022-11-29T18:41:49.062Z,101775.09
2022-11-29T18:44:19.008Z,101768.81
2022-11-29T18:46:46.519Z,101775.09
2022-11-29T18:49:16.762Z,101785.09
2022-11-29T18:51:45.918Z,101775.31
2022-11-29T18:54:18.380Z,101779.09
2022-11-29T18:56:46.221Z,101780.09
2022-11-29T18:59:19.519Z,101776.44
2022-11-29T19:01:48.312Z,101790.84
2022-11-29T19:04:21.141Z,101784.78
2022-11-29T19:06:48.732Z,101790.16
2022-11-29T19:09:21.186Z,101799.06
2022-11-29T19:11:51.380Z,101799.94
2022-11-29T19:14:19.199Z,101797.25
2022-11-29T19:16:49.043Z,101804.44
2022-11-29T19:19:15.821Z,101798.06
2022-11-29T19:21:42.817Z,101803.44
2022-11-29T19:24:17.601Z,101803.59
2022-11-29T19:26:47.413Z,101795.75
2022-11-29T19:29:15.480Z,101802.19
2022-11-29T19:31:42.894Z,101797.94
2022-11-29T19:34:10.226Z,101790.06
2022-11-29T19:36:43.694Z,101794.59
2022-11-29T19:39:14.443Z,101800.94
2022-11-29T19:41:45.468Z,101797.44
2022-11-29T19:44:13.141Z,101791.16
2022-11-29T19:46:47.024Z,101793.94
2022-11-29T19:49:14.611Z,101794.84
2022-11-29T19:51:42.760Z,101794.03
2022-11-29T19:54:10.757Z,101790.53
2022-11-29T19:56:38.977Z,101793.28
2022-11-29T19:59:08.063Z,101795.22
2022-11-29T20:01:40.861Z,101801.50
2022-11-29T20:04:10.437Z,101806.13
2022-11-29T20:06:38.231Z,101805.31
2022-11-29T20:09:06.448Z,101800.94
2022-11-29T20:11:33.539Z,101800.13
2022-11-29T20:14:03.416Z,101799.25
2022-11-29T20:16:31.747Z,101812.59
2022-11-29T20:18:59.579Z,101812.59
2022-11-29T20:21:33.764Z,101812.59
2022-11-29T20:24:05.015Z,101814.38
2022-11-29T20:26:35.099Z,101820.66
2022-11-29T20:29:02.939Z,101815.22
2022-11-29T20:31:32.908Z,101815.28
2022-11-29T20:34:00.118Z,101819.84
2022-11-29T20:37:25.780Z,101820.91
2022-11-29T20:40:19.400Z,101834.31
2022-11-29T20:43:31.135Z,101821.81
2022-11-29T20:45:58.075Z,101830.81
2022-11-29T20:48:25.738Z,101825.44
2022-11-29T20:51:02.770Z,101836.19
2022-11-29T20:53:44.152Z,101829.06
2022-11-29T20:56:12.461Z,101829.06
2022-11-29T20:58:40.099Z,101841.56
2022-11-29T21:01:07.642Z,101836.19
2022-11-29T21:03:34.845Z,101835.22
2022-11-29T21:06:04.601Z,101838.00
2022-11-29T21:08:31.609Z,101835.38
2022-11-29T21:11:09.131Z,101838.97
2022-11-29T21:13:36.751Z,101832.69
2022-11-29T21:16:04.676Z,101830.91
2022-11-29T21:18:32.545Z,101830.97
2022-11-29T21:21:10.970Z,101834.56
2022-11-29T21:24:02.237Z,101832.75
2022-11-29T21:26:41.678Z,101837.28
2022-11-29T21:29:16.580Z,101838.16
2022-11-29T21:31:45.320Z,101833.75
2022-11-29T21:34:12.490Z,101832.78
2022-11-29T21:36:39.990Z,101830.06
2022-11-29T21:39:12.584Z,101841.56
2022-11-29T21:41:40.374Z,101838.88
2022-11-29T21:44:08.192Z,101839.69
2022-11-29T21:46:36.022Z,101842.31
2022-11-29T21:49:02.962Z,101844.94
2022-11-29T21:51:29.738Z,101843.94
2022-11-29T21:53:56.455Z,101850.13
2022-11-29T21:56:23.167Z,101855.44
2022-11-29T21:58:49.933Z,101853.56
2022-11-29T22:01:20.178Z,101851.72
2022-11-29T22:03:47.587Z,101853.38
2022-11-29T22:06:20.799Z,101852.38
2022-11-29T22:08:48.819Z,101851.34
2022-11-29T22:11:31.877Z,101849.44
2022-11-29T22:14:14.850Z,101864.56
2022-11-29T22:16:51.609Z,101849.28
2022-11-29T22:19:31.182Z,101854.53
2022-11-29T22:22:01.843Z,101857.13
2022-11-29T22:24:32.630Z,101858.03
2022-11-29T22:26:59.787Z,101859.66
2022-11-29T22:29:26.558Z,101859.66
2022-11-29T22:31:55.995Z,101855.16
2022-11-29T22:34:25.227Z,101861.41
2022-11-29T22:36:52.391Z,101852.41
2022-11-29T22:39:19.223Z,101855.91
2022-11-29T22:41:53.622Z,101847.84
2022-11-29T22:44:21.358Z,101853.19
2022-11-29T22:46:48.339Z,101864.78
2022-11-29T22:49:15.215Z,101857.53
2022-11-29T22:51:42.008Z,101861.03
2022-11-29T22:54:17.899Z,101863.66
2022-11-29T22:56:46.167Z,101868.19
2022-11-29T22:59:13.135Z,101861.88
2022-11-29T23:01:41.829Z,101867.94
2022-11-29T23:04:11.010Z,101867.94
2022-11-29T23:06:44.587Z,101861.56
2022-11-29T23:09:16.592Z,101870.56
2022-11-29T23:11:45.731Z,101865.13
2022-11-29T23:14:13.121Z,101874.97
2022-11-29T23:16:40.650Z,101880.19
2022-11-29T23:19:07.501Z,101876.59
2022-11-29T23:21:40.691Z,101884.53
2022-11-29T23:24:08.003Z,101886.25
2022-11-29T23:26:41.536Z,101886.22
2022-11-29T23:29:12.778Z,101878.19
2022-11-29T23:31:40.103Z,101888.94
2022-11-29T23:34:07.867Z,101888.94
2022-11-29T23:36:34.915Z,101884.44
2022-11-29T23:39:05.597Z,101881.84
2022-11-29T23:41:33.675Z,101886.38
2022-11-29T23:44:00.453Z,101890.94
2022-11-29T23:46:27.320Z,101893.69
2022-11-29T23:48:54.280Z,101881.19
2022-11-29T23:51:21.314Z,101892.00
2022-11-29T23:53:53.831Z,101889.31
2022-11-29T23:56:22.391Z,101887.59
2022-11-29T23:58:49.379Z,101887.59
